createdAt,value
2023-05-25T00:00:26.717Z,11.02
2023-05-25T00:02:56.623Z,11.00
2023-05-25T00:05:27.870Z,10.98
2023-05-25T00:07:57.322Z,10.95
2023-05-25T00:10:27.404Z,10.90
2023-05-25T00:12:58.024Z,10.86
2023-05-25T00:15:28.249Z,10.81
2023-05-25T00:17:58.041Z,10.77
2023-05-25T00:20:27.466Z,10.74
2023-05-25T00:22:56.575Z,10.72
2023-05-25T00:25:26.164Z,10.68
2023-05-25T00:27:57.232Z,10.64
2023-05-25T00:30:28.878Z,10.61
2023-05-25T00:32:58.140Z,10.58
2023-05-25T00:35:29.178Z,10.55
2023-05-25T00:38:01.308Z,10.53
2023-05-25T00:40:32.266Z,10.52
2023-05-25T00:43:04.834Z,10.50
2023-05-25T00:45:38.437Z,10.48
2023-05-25T00:48:09.597Z,10.44
2023-05-25T00:50:42.651Z,10.41
2023-05-25T00:53:14.486Z,10.39
2023-05-25T00:55:50.596Z,10.37
2023-05-25T00:58:24.306Z,10.33
2023-05-25T01:00:56.368Z,10.33
2023-05-25T01:03:30.860Z,10.30
2023-05-25T01:06:02.356Z,10.29
2023-05-25T01:08:40.748Z,10.28
2023-05-25T01:12:23.798Z,10.21
2023-05-25T01:14:55.512Z,10.18
2023-05-25T01:17:24.093Z,10.16
2023-05-25T01:20:08.850Z,10.16
2023-05-25T01:22:46.656Z,10.13
2023-05-25T01:25:22.859Z,10.13
2023-05-25T01:27:59.579Z,10.09
2023-05-25T01:30:29.263Z,10.08
2023-05-25T01:32:58.589Z,10.06
2023-05-25T01:35:28.560Z,10.04
2023-05-25T01:38:00.644Z,10.03
2023-05-25T01:40:29.318Z,10.00
2023-05-25T01:42:57.798Z,10.00
2023-05-25T01:45:26.975Z,9.98
2023-05-25T01:48:07.033Z,9.95
2023-05-25T01:50:46.721Z,9.91
2023-05-25T01:53:21.832Z,9.90
2023-05-25T01:55:57.497Z,9.87
2023-05-25T01:58:28.023Z,9.86
2023-05-25T02:00:57.763Z,9.85
2023-05-25T02:03:26.658Z,9.84
2023-05-25T02:05:57.917Z,9.81
2023-05-25T02:08:27.962Z,9.79
2023-05-25T02:10:56.423Z,9.78
2023-05-25T02:13:24.894Z,9.78
2023-05-25T02:15:54.460Z,9.77
2023-05-25T02:18:23.779Z,9.75
2023-05-25T02:20:52.399Z,9.75
2023-05-25T02:23:21.154Z,9.74
2023-05-25T02:25:51.885Z,9.73
2023-05-25T02:28:22.795Z,9.71
2023-05-25T02:30:51.478Z,9.68
2023-05-25T02:33:20.396Z,9.67
2023-05-25T02:35:50.101Z,9.64
2023-05-25T02:38:18.581Z,9.59
2023-05-25T02:40:47.724Z,9.58
2023-05-25T02:43:17.620Z,9.56
2023-05-25T02:45:46.314Z,9.55
2023-05-25T02:48:14.727Z,9.55
2023-05-25T02:50:44.463Z,9.54
2023-05-25T02:53:12.921Z,9.53
2023-05-25T02:55:43.511Z,9.51
2023-05-25T02:58:12.461Z,9.50
2023-05-25T03:00:43.004Z,9.49
2023-05-25T03:03:11.711Z,9.51
2023-05-25T03:05:40.264Z,9.51
2023-05-25T03:08:09.384Z,9.51
2023-05-25T03:10:38.426Z,9.49
2023-05-25T03:13:07.420Z,9.49
2023-05-25T03:15:36.194Z,9.50
2023-05-25T03:18:07.145Z,9.52
2023-05-25T03:20:36.391Z,9.51
2023-05-25T03:23:05.187Z,9.51
2023-05-25T03:25:33.532Z,9.50
2023-05-25T03:28:02.125Z,9.49
2023-05-25T03:30:31.470Z,9.48
2023-05-25T03:33:00.141Z,9.46
2023-05-25T03:35:29.985Z,9.49
2023-05-25T03:37:58.444Z,9.48
2023-05-25T03:40:27.103Z,9.50
2023-05-25T03:42:55.688Z,9.52
2023-05-25T03:45:24.108Z,9.53
2023-05-25T03:47:53.225Z,9.53
2023-05-25T03:50:21.838Z,9.56
2023-05-25T03:52:52.687Z,9.59
2023-05-25T03:55:21.344Z,9.60
2023-05-25T03:57:49.818Z,9.66
2023-05-25T04:00:18.785Z,9.72
2023-05-25T04:02:47.382Z,9.80
2023-05-25T04:09:23.874Z,9.97
2023-05-25T04:11:52.594Z,10.06
2023-05-25T04:14:21.785Z,10.12
2023-05-25T04:16:50.609Z,10.19
2023-05-25T04:19:19.285Z,10.26
2023-05-25T04:22:01.026Z,10.34
2023-05-25T04:24:32.606Z,10.41
2023-05-25T04:27:02.356Z,10.49
2023-05-25T04:29:32.148Z,10.56
2023-05-25T04:32:01.015Z,10.61
2023-05-25T04:34:30.177Z,10.70
2023-05-25T04:36:58.848Z,10.76
2023-05-25T04:39:27.567Z,10.83
2023-05-25T04:41:57.672Z,10.90
2023-05-25T04:44:29.960Z,10.98
2023-05-25T04:46:59.622Z,11.05
2023-05-25T04:49:28.166Z,11.14
2023-05-25T04:51:56.598Z,11.22
2023-05-25T04:54:25.545Z,11.30
2023-05-25T04:56:54.294Z,11.39
2023-05-25T04:59:24.199Z,11.48
2023-05-25T05:01:52.903Z,11.56
2023-05-25T05:04:21.527Z,11.66
2023-05-25T05:06:50.100Z,11.75
2023-05-25T05:09:18.701Z,11.83
2023-05-25T05:11:47.124Z,11.92
2023-05-25T05:14:15.697Z,12.01
2023-05-25T05:16:45.481Z,12.09
2023-05-25T05:19:14.358Z,12.21
2023-05-25T05:21:43.016Z,12.31
2023-05-25T05:24:11.767Z,12.43
2023-05-25T05:26:56.171Z,12.55
2023-05-25T05:29:26.999Z,12.68
2023-05-25T05:31:57.628Z,12.83
2023-05-25T05:34:26.136Z,13.00
2023-05-25T05:36:58.491Z,13.24
2023-05-25T05:39:28.288Z,13.44
2023-05-25T05:41:57.191Z,13.61
2023-05-25T05:44:29.002Z,13.79
2023-05-25T05:47:01.887Z,13.96
2023-05-25T05:49:31.309Z,14.14
2023-05-25T05:52:00.477Z,14.33
2023-05-25T05:54:29.185Z,14.47
2023-05-25T05:56:57.843Z,14.61
2023-05-25T05:59:26.859Z,14.73
2023-05-25T06:01:56.176Z,14.82
2023-05-25T06:04:29.004Z,14.88
2023-05-25T06:06:58.639Z,15.01
2023-05-25T06:09:27.567Z,15.19
2023-05-25T06:11:56.163Z,15.33
2023-05-25T06:14:26.776Z,15.39
2023-05-25T06:16:56.948Z,15.39
2023-05-25T06:19:26.896Z,15.42
2023-05-25T06:21:55.364Z,15.45
2023-05-25T06:24:23.956Z,15.46
2023-05-25T06:26:52.514Z,15.42
2023-05-25T06:29:21.022Z,15.38
2023-05-25T06:31:49.532Z,15.45
2023-05-25T06:34:18.003Z,15.68
2023-05-25T06:36:48.178Z,15.89
2023-05-25T06:39:16.704Z,16.08
2023-05-25T06:41:45.344Z,16.38
2023-05-25T06:44:13.908Z,16.63
2023-05-25T06:46:42.492Z,16.79
2023-05-25T06:49:11.481Z,16.94
2023-05-25T06:51:40.000Z,17.10
2023-05-25T06:54:09.925Z,17.38
2023-05-25T06:56:38.369Z,17.58
2023-05-25T07:01:36.762Z,17.52
2023-05-25T07:04:05.334Z,17.56
2023-05-25T07:06:34.105Z,17.50
2023-05-25T07:09:02.467Z,17.43
2023-05-25T07:11:32.410Z,17.32
2023-05-25T07:14:00.962Z,17.23
2023-05-25T07:16:29.692Z,17.25
2023-05-25T07:19:00.052Z,17.22
2023-05-25T07:21:32.482Z,17.10
2023-05-25T07:24:01.793Z,17.01
2023-05-25T07:26:32.202Z,16.99
2023-05-25T07:29:01.621Z,16.97
2023-05-25T07:31:30.799Z,16.87
2023-05-25T07:33:59.639Z,16.74
2023-05-25T07:36:28.227Z,16.66
2023-05-25T07:38:56.747Z,16.60
2023-05-25T07:41:25.417Z,16.52
2023-05-25T07:43:55.252Z,16.47
2023-05-25T07:46:25.436Z,16.59
2023-05-25T07:48:54.721Z,16.74
2023-05-25T07:51:26.586Z,16.73
2023-05-25T07:53:55.418Z,16.61
2023-05-25T07:56:24.128Z,16.54
2023-05-25T07:58:52.594Z,16.58
2023-05-25T08:01:24.893Z,16.56
2023-05-25T08:03:54.912Z,16.51
2023-05-25T08:06:23.795Z,16.54
2023-05-25T08:08:52.387Z,16.56
2023-05-25T08:11:25.308Z,16.46
2023-05-25T08:13:53.900Z,16.52
2023-05-25T08:16:24.086Z,16.80
2023-05-25T08:18:52.640Z,17.06
2023-05-25T08:21:21.436Z,17.31
2023-05-25T08:23:50.798Z,17.47
2023-05-25T08:26:37.862Z,17.71
2023-05-25T08:29:08.295Z,17.99
2023-05-25T08:31:38.302Z,18.31
2023-05-25T08:34:06.924Z,18.61
2023-05-25T08:36:36.277Z,18.96
2023-05-25T08:39:05.861Z,19.22
2023-05-25T08:41:36.046Z,19.30
2023-05-25T08:44:08.112Z,19.37
2023-05-25T08:46:38.751Z,19.54
2023-05-25T08:49:11.690Z,19.79
2023-05-25T08:51:44.334Z,19.96
2023-05-25T08:54:15.229Z,19.94
2023-05-25T08:56:51.330Z,19.70
2023-05-25T08:59:32.858Z,19.50
2023-05-25T09:02:21.567Z,19.57
2023-05-25T09:04:50.272Z,19.74
2023-05-25T09:07:19.204Z,19.83
2023-05-25T09:09:50.011Z,19.75
2023-05-25T09:12:19.920Z,19.65
2023-05-25T09:14:48.590Z,19.89
2023-05-25T09:17:20.115Z,20.15
2023-05-25T09:19:48.791Z,20.09
2023-05-25T09:22:17.984Z,20.04
2023-05-25T09:24:47.116Z,20.18
2023-05-25T09:27:19.676Z,20.05
2023-05-25T09:29:50.100Z,19.78
2023-05-25T09:32:21.005Z,19.75
2023-05-25T09:34:49.583Z,19.97
2023-05-25T09:37:20.089Z,20.22
2023-05-25T09:39:49.298Z,20.57
2023-05-25T09:42:18.302Z,20.82
2023-05-25T09:44:46.834Z,20.99
2023-05-25T09:47:17.094Z,21.01
2023-05-25T09:49:49.513Z,20.90
2023-05-25T09:52:18.414Z,20.71
2023-05-25T09:54:47.904Z,20.84
2023-05-25T09:57:17.353Z,20.98
2023-05-25T09:59:46.363Z,20.86
2023-05-25T10:02:15.784Z,20.92
2023-05-25T10:04:44.638Z,21.13
2023-05-25T10:07:16.277Z,20.98
2023-05-25T10:09:47.937Z,20.78
2023-05-25T10:12:20.975Z,20.57
2023-05-25T10:14:54.263Z,20.43
2023-05-25T10:17:25.810Z,20.26
2023-05-25T10:19:59.440Z,20.26
2023-05-25T10:22:36.046Z,20.14
2023-05-25T10:25:12.308Z,20.07
2023-05-25T10:27:43.158Z,20.23
2023-05-25T10:30:13.129Z,20.49
2023-05-25T10:32:44.241Z,20.53
2023-05-25T10:35:13.817Z,20.41
2023-05-25T10:37:45.503Z,20.18
2023-05-25T10:40:15.401Z,20.33
2023-05-25T10:42:44.391Z,20.65
2023-05-25T10:45:13.725Z,20.75
2023-05-25T10:47:43.313Z,21.06
2023-05-25T10:50:22.952Z,21.47
2023-05-25T10:53:03.872Z,21.92
2023-05-25T10:55:44.203Z,22.26
2023-05-25T10:58:15.052Z,22.12
2023-05-25T11:00:44.899Z,21.64
2023-05-25T11:03:13.476Z,21.23
2023-05-25T11:05:42.207Z,21.00
2023-05-25T11:08:13.224Z,21.13
2023-05-25T11:11:00.292Z,20.98
2023-05-25T11:13:39.771Z,20.86
2023-05-25T11:16:14.891Z,20.87
2023-05-25T11:18:44.151Z,21.01
2023-05-25T11:21:18.753Z,21.47
2023-05-25T11:24:00.279Z,21.68
2023-05-25T11:26:31.843Z,21.75
2023-05-25T11:29:02.341Z,21.94
2023-05-25T11:31:37.543Z,21.97
2023-05-25T11:34:09.490Z,21.99
2023-05-25T11:36:39.402Z,22.34
2023-05-25T11:39:17.521Z,22.82
2023-05-25T11:41:54.732Z,23.15
2023-05-25T11:44:31.278Z,23.45
2023-05-25T11:47:06.066Z,23.42
2023-05-25T11:49:34.569Z,23.32
2023-05-25T11:52:08.326Z,22.94
2023-05-25T11:54:41.154Z,23.15
2023-05-25T11:57:18.052Z,23.59
2023-05-25T11:59:51.126Z,23.61
2023-05-25T12:02:21.336Z,23.43
2023-05-25T12:04:58.578Z,23.56
2023-05-25T12:07:29.124Z,23.53
2023-05-25T12:10:08.766Z,23.78
2023-05-25T12:12:42.943Z,23.99
2023-05-25T12:15:13.321Z,24.40
2023-05-25T12:17:44.871Z,24.43
2023-05-25T12:20:16.106Z,24.45
2023-05-25T12:22:46.284Z,24.86
2023-05-25T12:25:20.993Z,25.60
2023-05-25T12:27:49.471Z,26.08
2023-05-25T12:30:18.010Z,26.05
2023-05-25T12:32:55.645Z,25.50
2023-05-25T12:35:24.504Z,25.74
2023-05-25T12:38:10.848Z,26.05
2023-05-25T12:40:42.123Z,26.18
2023-05-25T12:43:13.959Z,25.96
2023-05-25T12:45:43.975Z,25.81
2023-05-25T12:48:13.127Z,26.21
2023-05-25T12:50:58.626Z,26.74
2023-05-25T12:53:29.066Z,27.08
2023-05-25T12:56:06.635Z,27.18
2023-05-25T12:58:35.127Z,27.30
2023-05-25T13:01:03.609Z,27.79
2023-05-25T13:03:32.263Z,28.14
2023-05-25T13:06:04.845Z,28.58
2023-05-25T13:08:33.285Z,28.93
2023-05-25T13:11:03.756Z,29.48
2023-05-25T13:13:33.751Z,28.82
2023-05-25T13:16:02.257Z,28.02
2023-05-25T13:18:30.752Z,27.86
2023-05-25T13:20:59.766Z,28.04
2023-05-25T13:23:28.681Z,28.78
2023-05-25T13:25:57.264Z,29.37
2023-05-25T13:28:26.053Z,29.73
2023-05-25T13:30:55.788Z,30.12
2023-05-25T13:33:24.400Z,30.33
2023-05-25T13:35:59.573Z,30.58
2023-05-25T13:38:29.674Z,30.70
2023-05-25T13:40:58.416Z,30.74
2023-05-25T13:43:27.229Z,30.86
2023-05-25T13:45:59.102Z,31.10
2023-05-25T13:48:28.300Z,30.67
2023-05-25T13:50:57.150Z,30.49
2023-05-25T13:53:25.674Z,29.95
2023-05-25T13:55:54.409Z,29.67
2023-05-25T13:58:24.655Z,30.24
2023-05-25T14:00:53.497Z,30.87
2023-05-25T14:03:23.645Z,31.30
2023-05-25T14:05:53.866Z,31.71
2023-05-25T14:08:22.570Z,31.72
2023-05-25T14:10:51.145Z,31.76
2023-05-25T14:13:19.871Z,32.06
2023-05-25T14:15:48.438Z,32.38
2023-05-25T14:18:17.217Z,32.35
2023-05-25T14:20:47.341Z,32.49
2023-05-25T14:23:18.456Z,33.13
2023-05-25T14:25:48.834Z,32.45
2023-05-25T14:28:17.496Z,32.03
2023-05-25T14:30:45.976Z,32.09
2023-05-25T14:33:15.841Z,31.67
2023-05-25T14:35:44.712Z,31.48
2023-05-25T14:38:14.744Z,32.57
2023-05-25T14:40:43.229Z,33.22
2023-05-25T14:43:11.822Z,33.00
2023-05-25T14:45:40.411Z,33.17
2023-05-25T14:50:44.481Z,32.34
2023-05-25T14:53:14.815Z,31.29
2023-05-25T14:55:43.747Z,30.65
2023-05-25T14:58:12.416Z,31.07
2023-05-25T15:00:40.904Z,31.48
2023-05-25T15:03:09.509Z,32.00
2023-05-25T15:05:38.047Z,31.87
2023-05-25T15:08:06.774Z,31.93
2023-05-25T15:10:36.960Z,32.35
2023-05-25T15:13:05.494Z,32.50
2023-05-25T15:15:34.033Z,32.75
2023-05-25T15:18:02.574Z,32.78
2023-05-25T15:20:31.308Z,33.08
2023-05-25T15:22:59.898Z,33.33
2023-05-25T15:28:01.697Z,33.79
2023-05-25T15:30:30.358Z,33.29
2023-05-25T15:32:58.951Z,33.17
2023-05-25T15:35:31.570Z,33.27
2023-05-25T15:38:00.455Z,33.27
2023-05-25T15:40:29.363Z,33.48
2023-05-25T15:42:57.846Z,33.79
2023-05-25T15:45:27.714Z,33.31
2023-05-25T15:47:56.339Z,32.65
2023-05-25T15:50:24.870Z,33.12
2023-05-25T15:52:53.201Z,33.80
2023-05-25T15:55:22.059Z,33.98
2023-05-25T15:57:50.569Z,34.00
2023-05-25T16:00:19.890Z,33.83
2023-05-25T16:02:49.919Z,33.67
2023-05-25T16:05:18.901Z,33.81
2023-05-25T16:07:47.449Z,33.64
2023-05-25T16:10:15.966Z,33.60
2023-05-25T16:12:46.340Z,33.35
2023-05-25T16:15:15.347Z,32.49
2023-05-25T16:17:44.070Z,32.74
2023-05-25T16:20:14.549Z,33.42
2023-05-25T16:22:43.316Z,33.34
2023-05-25T16:25:12.287Z,33.47
2023-05-25T16:27:40.984Z,33.58
2023-05-25T16:30:12.536Z,33.73
2023-05-25T16:32:42.129Z,34.10
2023-05-25T16:35:11.116Z,34.04
2023-05-25T16:37:41.358Z,33.94
2023-05-25T16:40:11.349Z,33.83
2023-05-25T16:42:39.902Z,33.78
2023-05-25T16:45:09.944Z,33.72
2023-05-25T16:47:38.614Z,33.53
2023-05-25T16:50:09.237Z,33.40
2023-05-25T16:52:38.138Z,33.88
2023-05-25T16:55:09.378Z,33.41
2023-05-25T16:57:37.755Z,33.37
2023-05-25T17:00:08.285Z,32.66
2023-05-25T17:02:36.978Z,32.31
2023-05-25T17:05:06.836Z,32.14
2023-05-25T17:07:35.939Z,32.26
2023-05-25T17:10:04.596Z,32.24
2023-05-25T17:12:34.410Z,32.12
2023-05-25T17:15:02.976Z,32.47
2023-05-25T17:17:31.589Z,32.64
2023-05-25T17:20:00.472Z,32.47
2023-05-25T17:22:29.011Z,32.31
2023-05-25T17:24:57.467Z,32.19
2023-05-25T17:27:26.084Z,31.85
2023-05-25T17:29:55.988Z,31.57
2023-05-25T17:32:24.637Z,31.67
2023-05-25T17:34:53.175Z,31.48
2023-05-25T17:37:21.645Z,31.34
2023-05-25T17:39:50.141Z,31.22
2023-05-25T17:42:18.802Z,30.89
2023-05-25T17:44:47.266Z,30.77
2023-05-25T17:47:17.803Z,30.23
2023-05-25T17:49:46.290Z,29.51
2023-05-25T17:52:14.901Z,29.37
2023-05-25T17:54:43.458Z,29.49
2023-05-25T17:57:14.087Z,28.53
2023-05-25T17:59:44.825Z,27.96
2023-05-25T18:02:14.692Z,26.87
2023-05-25T18:04:44.936Z,26.41
2023-05-25T18:07:13.478Z,25.77
2023-05-25T18:09:44.661Z,25.56
2023-05-25T18:12:13.297Z,25.47
2023-05-25T18:14:44.753Z,25.31
2023-05-25T18:17:13.504Z,24.41
2023-05-25T18:19:43.580Z,23.30
2023-05-25T18:22:12.141Z,22.38
2023-05-25T18:24:41.275Z,21.81
2023-05-25T18:27:09.746Z,21.98
2023-05-25T18:29:38.203Z,22.43
2023-05-25T18:32:07.289Z,22.32
2023-05-25T18:34:35.707Z,21.61
2023-05-25T18:37:05.795Z,20.89
2023-05-25T18:39:34.549Z,20.68
2023-05-25T18:42:03.150Z,20.74
2023-05-25T18:44:31.567Z,20.69
2023-05-25T18:47:00.164Z,20.16
2023-05-25T18:49:32.810Z,19.52
2023-05-25T18:52:01.507Z,18.99
2023-05-25T18:54:31.643Z,18.53
2023-05-25T18:57:01.820Z,18.12
2023-05-25T18:59:31.609Z,17.75
2023-05-25T19:02:00.436Z,17.38
2023-05-25T19:04:29.346Z,17.04
2023-05-25T19:06:58.013Z,16.75
2023-05-25T19:09:26.652Z,16.54
2023-05-25T19:11:56.630Z,16.33
2023-05-25T19:14:25.170Z,16.17
2023-05-25T19:16:53.815Z,16.03
2023-05-25T19:19:22.385Z,15.97
2023-05-25T19:21:50.989Z,15.83
2023-05-25T19:24:19.705Z,15.64
2023-05-25T19:26:49.830Z,15.43
2023-05-25T19:29:19.919Z,15.23
2023-05-25T19:31:48.389Z,15.02
2023-05-25T19:34:16.995Z,14.85
2023-05-25T19:36:45.641Z,14.71
2023-05-25T19:39:14.891Z,14.58
2023-05-25T19:41:43.407Z,14.43
2023-05-25T19:44:12.402Z,14.32
2023-05-25T19:46:42.482Z,14.23
2023-05-25T19:49:11.003Z,14.13
2023-05-25T19:51:39.574Z,14.06
2023-05-25T19:54:08.485Z,13.94
2023-05-25T19:56:37.011Z,13.81
2023-05-25T19:59:07.410Z,13.70
2023-05-25T20:01:36.539Z,13.61
2023-05-25T20:04:06.474Z,13.52
2023-05-25T20:06:34.953Z,13.44
2023-05-25T20:09:03.697Z,13.37
2023-05-25T20:11:32.161Z,13.28
2023-05-25T20:14:00.670Z,13.18
2023-05-25T20:16:29.524Z,13.08
2023-05-25T20:18:58.430Z,12.99
2023-05-25T20:21:29.353Z,12.92
2023-05-25T20:23:59.156Z,12.84
2023-05-25T20:26:27.730Z,12.78
2023-05-25T20:28:56.408Z,12.72
2023-05-25T20:31:26.979Z,12.65
2023-05-25T20:33:55.521Z,12.56
2023-05-25T20:36:24.148Z,12.48
2023-05-25T20:38:54.542Z,12.41
2023-05-25T20:41:23.076Z,12.36
2023-05-25T20:43:51.597Z,12.28
2023-05-25T20:46:20.224Z,12.22
2023-05-25T20:48:48.686Z,12.17
2023-05-25T20:51:17.309Z,12.12
2023-05-25T20:53:45.755Z,12.05
2023-05-25T20:56:16.208Z,12.00
2023-05-25T20:58:45.004Z,11.95
2023-05-25T21:01:14.145Z,11.91
2023-05-25T21:03:42.828Z,11.86
2023-05-25T21:06:11.468Z,11.81
2023-05-25T21:08:39.947Z,11.75
2023-05-25T21:11:08.813Z,11.71
2023-05-25T21:13:39.084Z,11.65
2023-05-25T21:16:08.496Z,11.60
2023-05-25T21:18:37.032Z,11.54
2023-05-25T21:21:05.957Z,11.51
2023-05-25T21:23:34.438Z,11.46
2023-05-25T21:26:05.730Z,11.43
2023-05-25T21:28:34.286Z,11.39
2023-05-25T21:31:04.384Z,11.34
2023-05-25T21:33:35.938Z,11.30
2023-05-25T21:36:05.778Z,11.25
2023-05-25T21:38:34.861Z,11.22
2023-05-25T21:41:03.382Z,11.18
2023-05-25T21:43:31.911Z,11.15
2023-05-25T21:46:00.743Z,11.12
2023-05-25T21:48:30.682Z,11.08
2023-05-25T21:50:59.446Z,11.04
2023-05-25T21:53:28.321Z,10.99
2023-05-25T21:55:57.079Z,10.95
2023-05-25T21:58:25.637Z,10.90
2023-05-25T22:00:54.144Z,10.87
2023-05-25T22:03:22.748Z,10.82
2023-05-25T22:05:52.836Z,10.79
2023-05-25T22:08:21.426Z,10.75
2023-05-25T22:10:49.964Z,10.71
2023-05-25T22:13:18.595Z,10.67
2023-05-25T22:15:47.180Z,10.62
2023-05-25T22:18:16.536Z,10.57
2023-05-25T22:20:45.187Z,10.52
2023-05-25T22:23:15.643Z,10.46
2023-05-25T22:25:44.321Z,10.45
2023-05-25T22:28:13.098Z,10.40
2023-05-25T22:30:42.459Z,10.34
2023-05-25T22:33:11.235Z,10.33
2023-05-25T22:35:39.886Z,10.29
2023-05-25T22:38:08.363Z,10.23
2023-05-25T22:40:38.530Z,10.19
2023-05-25T22:43:12.802Z,10.16
2023-05-25T22:45:42.173Z,10.14
2023-05-25T22:48:12.381Z,10.10
2023-05-25T22:50:41.245Z,10.08
2023-05-25T22:53:09.884Z,10.03
2023-05-25T22:55:39.737Z,10.00
2023-05-25T22:58:08.126Z,9.98
2023-05-25T23:00:36.707Z,9.95
2023-05-25T23:03:05.314Z,9.91
2023-05-25T23:05:34.500Z,9.89
2023-05-25T23:08:03.829Z,9.84
2023-05-25T23:10:32.323Z,9.81
2023-05-25T23:13:02.492Z,9.77
2023-05-25T23:15:31.258Z,9.73
2023-05-25T23:18:00.017Z,9.70
2023-05-25T23:20:28.767Z,9.67
2023-05-25T23:22:57.357Z,9.65
2023-05-25T23:25:26.280Z,9.60
2023-05-25T23:27:54.757Z,9.58
2023-05-25T23:30:24.759Z,9.55
2023-05-25T23:32:53.196Z,9.53
2023-05-25T23:35:22.787Z,9.50
2023-05-25T23:37:52.124Z,9.48
2023-05-25T23:40:20.895Z,9.47
2023-05-25T23:42:49.360Z,9.47
2023-05-25T23:45:17.866Z,9.46
2023-05-25T23:47:47.899Z,9.47
2023-05-25T23:50:16.492Z,9.47
2023-05-25T23:52:45.836Z,9.47
2023-05-25T23:55:14.875Z,9.47
2023-05-25T23:57:45.650Z,9.46
